createdAt,value
2023-01-06T00:01:21.244Z,1.52
2023-01-06T00:06:27.514Z,1.40
2023-01-06T00:11:29.827Z,1.60
2023-01-06T00:16:31.420Z,1.55
2023-01-06T00:21:33.170Z,1.52
2023-01-06T00:26:34.845Z,1.48
2023-01-06T00:31:37.915Z,1.67
2023-01-06T00:36:39.522Z,1.63
2023-01-06T00:42:00.229Z,1.65
2023-01-06T00:47:03.169Z,1.30
2023-01-06T00:52:05.133Z,1.42
2023-01-06T00:57:07.913Z,1.60
2023-01-06T01:02:09.711Z,2.38
2023-01-06T01:07:11.310Z,1.77
2023-01-06T01:12:14.706Z,1.35
2023-01-06T01:17:27.832Z,1.45
2023-01-06T01:22:31.356Z,1.65
2023-01-06T01:27:32.997Z,1.73
2023-01-06T01:32:34.612Z,1.92
2023-01-06T01:37:36.234Z,1.70
2023-01-06T01:42:37.904Z,2.60
2023-01-06T01:47:52.054Z,2.38
2023-01-06T01:53:01.177Z,1.80
2023-01-06T02:03:09.174Z,2.03
2023-01-06T02:08:38.386Z,1.98
2023-01-06T02:13:42.434Z,1.97
2023-01-06T02:19:02.366Z,1.92
2023-01-06T02:24:31.851Z,2.67
2023-01-06T02:35:02.983Z,2.10
2023-01-06T02:40:33.844Z,1.88
2023-01-06T02:45:53.306Z,2.00
2023-01-06T02:51:30.036Z,1.50
2023-01-06T02:56:36.906Z,1.60
2023-01-06T03:01:44.081Z,2.28
2023-01-06T03:06:50.702Z,1.90
2023-01-06T03:11:52.847Z,1.80
2023-01-06T03:16:55.304Z,1.95
2023-01-06T03:21:59.274Z,2.25
2023-01-06T03:27:02.981Z,1.80
2023-01-06T03:32:12.065Z,1.90
2023-01-06T03:42:54.558Z,2.05
2023-01-06T03:48:08.236Z,2.15
2023-01-06T03:53:22.676Z,1.73
2023-01-06T03:58:29.521Z,1.50
2023-01-06T04:03:31.952Z,2.00
2023-01-06T04:08:34.091Z,1.83
2023-01-06T04:13:37.293Z,1.58
2023-01-06T04:18:39.056Z,2.28
2023-01-06T04:23:41.310Z,1.70
2023-01-06T04:28:43.082Z,2.05
2023-01-06T04:33:45.174Z,1.80
2023-01-06T04:38:47.695Z,1.65
2023-01-06T04:43:49.826Z,1.90
2023-01-06T04:48:51.492Z,2.28
2023-01-06T04:53:53.280Z,2.22
2023-01-06T04:58:58.300Z,2.17
2023-01-06T05:04:00.304Z,2.28
2023-01-06T05:09:02.464Z,2.20
2023-01-06T05:14:04.214Z,3.28
2023-01-06T05:19:05.867Z,2.10
2023-01-06T05:24:09.998Z,1.85
2023-01-06T05:29:17.711Z,2.25
2023-01-06T05:34:19.350Z,1.88
2023-01-06T05:39:20.961Z,2.28
2023-01-06T05:44:22.548Z,1.90
2023-01-06T05:49:24.177Z,3.22
2023-01-06T05:54:26.066Z,2.53
2023-01-06T05:59:27.737Z,3.03
2023-01-06T06:04:29.395Z,2.38
2023-01-06T06:09:31.045Z,2.83
2023-01-06T06:14:32.851Z,2.63
2023-01-06T06:19:34.490Z,3.67
2023-01-06T06:24:36.116Z,2.65
2023-01-06T06:29:37.927Z,2.13
2023-01-06T06:34:39.595Z,2.72
2023-01-06T06:39:41.239Z,2.05
2023-01-06T06:44:43.116Z,2.50
2023-01-06T06:49:44.857Z,2.40
2023-01-06T06:54:46.459Z,1.73
2023-01-06T06:59:48.508Z,2.15
2023-01-06T07:04:50.459Z,2.10
2023-01-06T07:09:52.060Z,2.35
2023-01-06T07:14:53.689Z,2.45
2023-01-06T07:19:55.488Z,2.53
2023-01-06T07:24:57.075Z,2.13
2023-01-06T07:29:58.677Z,3.38
2023-01-06T07:35:00.325Z,2.13
2023-01-06T07:40:02.007Z,2.00
2023-01-06T07:45:10.126Z,2.40
2023-01-06T07:50:11.842Z,1.47
2023-01-06T07:55:13.572Z,2.25
2023-01-06T08:00:15.565Z,1.73
2023-01-06T08:05:17.178Z,2.08
2023-01-06T08:10:18.791Z,2.25
2023-01-06T08:15:20.650Z,1.48
2023-01-06T08:20:22.958Z,1.85
2023-01-06T08:25:24.618Z,1.92
2023-01-06T08:30:26.703Z,2.10
2023-01-06T08:35:28.922Z,2.45
2023-01-06T08:40:30.701Z,2.00
2023-01-06T08:45:32.348Z,3.17
2023-01-06T08:50:33.995Z,2.72
2023-01-06T08:55:38.989Z,2.20
2023-01-06T09:00:43.271Z,2.75
2023-01-06T09:05:52.461Z,2.58
2023-01-06T09:15:55.588Z,2.75
2023-01-06T09:20:57.368Z,2.50
2023-01-06T09:25:59.472Z,2.30
2023-01-06T09:31:01.504Z,3.15
2023-01-06T09:36:03.626Z,3.42
2023-01-06T09:41:21.055Z,2.97
2023-01-06T09:46:28.926Z,2.65
2023-01-06T09:51:32.707Z,2.80
2023-01-06T09:56:34.374Z,2.22
2023-01-06T10:01:45.260Z,3.75
2023-01-06T10:07:21.091Z,3.30
2023-01-06T10:12:25.297Z,3.33
2023-01-06T10:17:48.754Z,3.33
2023-01-06T10:22:53.421Z,3.20
2023-01-06T10:28:33.998Z,3.05
2023-01-06T10:33:41.367Z,2.60
2023-01-06T10:38:46.985Z,1.73
2023-01-06T10:43:48.687Z,2.45
2023-01-06T10:48:52.121Z,2.10
2023-01-06T10:53:57.842Z,2.00
2023-01-06T10:59:10.675Z,1.95
2023-01-06T11:04:13.524Z,1.83
2023-01-06T11:09:33.937Z,2.38
2023-01-06T11:14:36.393Z,2.65
2023-01-06T11:19:40.404Z,2.60
2023-01-06T11:24:53.615Z,3.15
2023-01-06T11:29:55.520Z,2.33
2023-01-06T11:35:05.595Z,2.40
2023-01-06T11:40:37.000Z,1.73
2023-01-06T11:45:42.213Z,1.90
2023-01-06T11:50:58.378Z,1.52
2023-01-06T11:56:02.592Z,1.40
2023-01-06T12:01:29.179Z,1.17
2023-01-06T12:06:37.100Z,1.42
2023-01-06T12:11:53.413Z,1.52
2023-01-06T12:17:11.222Z,1.17
2023-01-06T12:22:45.320Z,1.50
2023-01-06T12:28:11.812Z,1.48
2023-01-06T12:33:24.309Z,1.50
2023-01-06T12:38:25.863Z,1.65
2023-01-06T12:43:31.379Z,1.25
2023-01-06T12:48:45.563Z,1.63
2023-01-06T12:53:58.008Z,1.48
2023-01-06T12:59:08.707Z,1.10
2023-01-06T13:04:28.868Z,1.38
2023-01-06T13:09:45.348Z,1.40
2023-01-06T13:15:13.069Z,1.20
2023-01-06T13:20:23.902Z,0.90
2023-01-06T13:25:44.911Z,1.30
2023-01-06T13:31:09.305Z,1.23
2023-01-06T13:37:08.165Z,0.90
2023-01-06T13:42:16.755Z,1.88
2023-01-06T13:47:23.130Z,1.58
2023-01-06T13:52:30.651Z,1.60
2023-01-06T13:57:35.733Z,1.60
2023-01-06T14:02:40.503Z,1.77
2023-01-06T14:07:50.337Z,1.60
2023-01-06T14:12:52.597Z,1.23
2023-01-06T14:17:54.330Z,1.33
2023-01-06T14:23:05.894Z,1.10
2023-01-06T14:28:23.840Z,1.05
2023-01-06T14:33:39.573Z,1.30
2023-01-06T14:38:46.520Z,1.85
2023-01-06T14:43:58.278Z,1.88
2023-01-06T14:49:02.972Z,1.05
2023-01-06T14:54:35.836Z,1.17
2023-01-06T14:59:37.485Z,1.30
2023-01-06T15:04:39.799Z,1.30
2023-01-06T15:09:41.726Z,1.30
2023-01-06T15:14:43.545Z,1.17
2023-01-06T15:19:47.656Z,1.65
2023-01-06T15:24:49.825Z,1.63
2023-01-06T15:29:56.973Z,4.90
2023-01-06T15:34:59.595Z,12.40
2023-01-06T15:40:02.021Z,16.13
2023-01-06T15:45:07.000Z,5.40
2023-01-06T15:50:18.628Z,3.78
2023-01-06T15:55:25.754Z,3.67
2023-01-06T16:00:32.222Z,2.55
2023-01-06T16:05:41.182Z,3.38
2023-01-06T16:10:44.886Z,4.78
2023-01-06T16:15:49.491Z,6.35
2023-01-06T16:20:51.196Z,7.55
2023-01-06T16:26:03.262Z,7.53
2023-01-06T16:31:09.296Z,6.05
2023-01-06T16:36:17.958Z,4.78
2023-01-06T16:41:19.966Z,4.60
2023-01-06T16:46:27.829Z,4.18
2023-01-06T16:51:29.531Z,3.13
2023-01-06T16:56:31.293Z,3.80
2023-01-06T17:01:35.487Z,3.35
2023-01-06T17:06:38.780Z,3.40
2023-01-06T17:11:40.434Z,7.50
2023-01-06T17:16:43.008Z,6.32
2023-01-06T17:21:44.706Z,5.40
2023-01-06T17:26:59.960Z,6.82
2023-01-06T17:32:03.326Z,8.20
2023-01-06T17:37:14.947Z,7.82
2023-01-06T17:42:16.693Z,6.85
2023-01-06T17:47:18.239Z,6.60
2023-01-06T17:52:23.024Z,13.05
2023-01-06T17:57:26.199Z,13.32
2023-01-06T18:02:44.407Z,4.53
2023-01-06T18:07:46.121Z,3.53
2023-01-06T18:12:48.340Z,3.97
2023-01-06T18:17:49.947Z,4.22
2023-01-06T18:22:51.623Z,4.20
2023-01-06T18:27:53.364Z,5.13
2023-01-06T18:32:55.114Z,5.38
2023-01-06T18:38:02.896Z,5.95
2023-01-06T18:43:23.120Z,7.50
2023-01-06T18:48:27.606Z,6.32
2023-01-06T18:53:40.152Z,4.25
2023-01-06T18:58:46.049Z,3.33
2023-01-06T19:04:37.748Z,2.50
2023-01-06T19:09:44.949Z,1.83
2023-01-06T19:14:51.017Z,1.70
2023-01-06T19:19:53.481Z,2.30
2023-01-06T19:25:15.318Z,2.00
2023-01-06T19:30:17.099Z,1.92
2023-01-06T19:35:25.827Z,2.15
2023-01-06T19:40:30.678Z,1.92
2023-01-06T19:45:34.962Z,2.30
2023-01-06T19:50:36.688Z,1.73
2023-01-06T19:55:38.912Z,1.63
2023-01-06T20:00:49.120Z,1.95
2023-01-06T20:05:50.826Z,1.60
2023-01-06T20:10:52.769Z,1.88
2023-01-06T20:15:54.606Z,2.22
2023-01-06T20:20:56.408Z,2.28
2023-01-06T20:25:58.468Z,3.60
2023-01-06T20:31:00.104Z,4.68
2023-01-06T20:36:01.759Z,2.65
2023-01-06T20:41:03.565Z,2.30
2023-01-06T20:46:05.704Z,2.40
2023-01-06T20:51:07.703Z,1.90
2023-01-06T20:56:09.305Z,2.30
2023-01-06T21:01:10.988Z,3.03
2023-01-06T21:06:12.757Z,2.65
2023-01-06T21:11:14.356Z,2.50
2023-01-06T21:16:15.978Z,3.33
2023-01-06T21:21:17.818Z,2.60
2023-01-06T21:26:19.426Z,3.10
2023-01-06T21:31:21.685Z,3.08
2023-01-06T21:36:23.344Z,3.78
2023-01-06T21:41:43.355Z,3.83
2023-01-06T21:46:45.029Z,3.70
2023-01-06T21:51:48.695Z,6.32
2023-01-06T21:56:50.594Z,5.80
2023-01-06T22:01:52.545Z,4.53
2023-01-06T22:06:56.720Z,4.25
2023-01-06T22:12:00.253Z,4.60
2023-01-06T22:17:02.428Z,4.70
2023-01-06T22:22:04.886Z,4.47
2023-01-06T22:27:06.697Z,4.70
2023-01-06T22:32:08.324Z,3.90
2023-01-06T22:37:09.964Z,4.55
2023-01-06T22:42:11.980Z,4.00
2023-01-06T22:47:13.633Z,5.13
2023-01-06T22:52:16.322Z,4.80
2023-01-06T22:57:18.200Z,4.20
2023-01-06T23:02:19.961Z,4.45
2023-01-06T23:07:22.081Z,5.13
2023-01-06T23:12:23.765Z,4.97
2023-01-06T23:17:25.408Z,5.35
2023-01-06T23:22:27.149Z,5.07
2023-01-06T23:27:31.157Z,4.50
2023-01-06T23:32:33.102Z,4.03
2023-01-06T23:37:34.985Z,4.53
2023-01-06T23:42:40.854Z,6.07
2023-01-06T23:47:49.367Z,6.35
2023-01-06T23:52:51.673Z,6.72
2023-01-06T23:57:54.172Z,6.13
